createdAt,value
2018-07-21T00:00:19.359Z,0
2018-07-21T00:01:35.303Z,0
2018-07-21T00:02:52.195Z,0
2018-07-21T00:04:08.108Z,0
2018-07-21T00:05:24.001Z,0
2018-07-21T00:06:39.918Z,0
2018-07-21T00:07:55.798Z,0
2018-07-21T00:09:11.792Z,0
2018-07-21T00:10:27.702Z,0
2018-07-21T00:11:43.607Z,0
2018-07-21T00:12:59.544Z,0
2018-07-21T00:14:15.455Z,0
2018-07-21T00:15:31.441Z,0
2018-07-21T00:16:47.347Z,0
2018-07-21T00:18:03.250Z,0
2018-07-21T00:19:19.151Z,0
2018-07-21T00:20:35.068Z,0
2018-07-21T00:21:50.981Z,0
2018-07-21T00:23:06.915Z,0
2018-07-21T00:24:22.815Z,0
2018-07-21T00:25:38.711Z,0
2018-07-21T00:26:54.621Z,0
2018-07-21T00:28:10.541Z,0
2018-07-21T00:29:26.445Z,0
2018-07-21T00:30:42.350Z,0
2018-07-21T00:31:58.319Z,0
2018-07-21T00:33:14.239Z,0
2018-07-21T00:34:30.122Z,0
2018-07-21T00:35:45.998Z,0
2018-07-21T00:37:01.869Z,0
2018-07-21T00:38:17.775Z,0
2018-07-21T00:39:33.661Z,0
2018-07-21T00:40:49.608Z,0
2018-07-21T00:42:05.452Z,0
2018-07-21T00:43:21.367Z,0
2018-07-21T00:44:37.239Z,0
2018-07-21T00:45:53.154Z,0
2018-07-21T00:47:09.037Z,0
2018-07-21T00:48:24.960Z,0
2018-07-21T00:49:40.901Z,0
2018-07-21T00:50:56.813Z,0
2018-07-21T00:52:12.713Z,0
2018-07-21T00:53:28.613Z,0
2018-07-21T00:54:44.487Z,0
2018-07-21T00:56:00.383Z,0
2018-07-21T00:57:16.366Z,0
2018-07-21T00:58:32.233Z,0
2018-07-21T00:59:48.148Z,0
2018-07-21T01:01:04.147Z,0
2018-07-21T01:02:20.127Z,0
2018-07-21T01:03:36.039Z,0
2018-07-21T01:04:51.955Z,0
2018-07-21T01:06:07.859Z,0
2018-07-21T01:07:23.774Z,0
2018-07-21T01:08:39.672Z,0
2018-07-21T01:09:55.564Z,0
2018-07-21T01:11:11.573Z,0
2018-07-21T01:12:27.441Z,0
2018-07-21T01:13:43.380Z,0
2018-07-21T01:14:59.340Z,0
2018-07-21T01:16:15.302Z,0
2018-07-21T01:17:31.197Z,0
2018-07-21T01:18:47.076Z,0
2018-07-21T01:20:02.961Z,0
2018-07-21T01:21:18.931Z,0
2018-07-21T01:22:34.805Z,0
2018-07-21T01:23:50.673Z,0
2018-07-21T01:25:06.550Z,0
2018-07-21T01:26:22.461Z,0
2018-07-21T01:27:38.363Z,0
2018-07-21T01:28:54.238Z,0
2018-07-21T01:30:10.131Z,0
2018-07-21T01:31:26.080Z,0
2018-07-21T01:32:41.947Z,0
2018-07-21T01:33:57.813Z,0
2018-07-21T01:35:13.708Z,0
2018-07-21T01:36:29.757Z,0
2018-07-21T01:37:45.723Z,0
2018-07-21T01:39:01.595Z,0
2018-07-21T01:40:17.499Z,0
2018-07-21T01:41:33.375Z,0
2018-07-21T01:42:49.277Z,0
2018-07-21T01:44:05.146Z,0
2018-07-21T01:45:21.020Z,0
2018-07-21T01:46:36.903Z,0
2018-07-21T01:47:52.786Z,0
2018-07-21T01:49:08.678Z,0
2018-07-21T01:50:24.553Z,0
2018-07-21T01:51:40.461Z,0
2018-07-21T01:52:56.316Z,0
2018-07-21T01:54:12.194Z,0
2018-07-21T01:55:28.079Z,0
2018-07-21T01:56:43.993Z,0
2018-07-21T01:57:59.898Z,0
2018-07-21T01:59:15.821Z,0
2018-07-21T02:00:31.695Z,0
2018-07-21T02:01:47.581Z,0
2018-07-21T02:03:03.448Z,0
2018-07-21T02:04:19.305Z,0
2018-07-21T02:05:35.183Z,0
2018-07-21T02:06:51.062Z,0
2018-07-21T02:08:06.921Z,0
2018-07-21T02:09:22.789Z,0
2018-07-21T02:10:38.704Z,0
2018-07-21T02:11:54.622Z,0
2018-07-21T02:13:10.519Z,0
2018-07-21T02:14:26.406Z,0
2018-07-21T02:15:42.302Z,0
2018-07-21T02:16:59.194Z,0
2018-07-21T02:18:15.110Z,0
2018-07-21T02:19:31.034Z,0
2018-07-21T02:20:46.931Z,0
2018-07-21T02:22:02.792Z,0
2018-07-21T02:23:18.718Z,0
2018-07-21T02:24:34.639Z,0
2018-07-21T02:25:50.568Z,0
2018-07-21T02:27:06.454Z,0
2018-07-21T02:28:22.339Z,0
2018-07-21T02:29:38.191Z,0
2018-07-21T02:30:54.054Z,0
2018-07-21T02:32:09.948Z,0
2018-07-21T02:33:25.895Z,0
2018-07-21T02:34:41.831Z,0
2018-07-21T02:35:57.775Z,0
2018-07-21T02:37:13.666Z,0
2018-07-21T02:38:29.706Z,0
2018-07-21T02:39:45.694Z,0
2018-07-21T02:41:01.592Z,0
2018-07-21T02:42:17.541Z,0
2018-07-21T02:43:33.506Z,0
2018-07-21T02:44:49.414Z,0
2018-07-21T02:46:05.295Z,0
2018-07-21T02:47:21.183Z,0
2018-07-21T02:48:38.095Z,0
2018-07-21T02:49:53.979Z,0
2018-07-21T02:51:09.859Z,0
2018-07-21T02:52:25.737Z,0
2018-07-21T02:53:42.592Z,0
2018-07-21T02:54:58.489Z,0
2018-07-21T02:56:14.381Z,0
2018-07-21T02:57:30.257Z,0
2018-07-21T02:58:46.121Z,0
2018-07-21T03:00:02.047Z,0
2018-07-21T03:01:17.920Z,0
2018-07-21T03:02:33.800Z,0
2018-07-21T03:03:49.658Z,0
2018-07-21T03:05:05.578Z,0
2018-07-21T03:06:21.444Z,0
2018-07-21T03:07:38.332Z,0
2018-07-21T03:08:54.195Z,0
2018-07-21T03:10:10.242Z,0
2018-07-21T03:11:25.981Z,0
2018-07-21T03:12:41.865Z,0
2018-07-21T03:13:57.753Z,0
2018-07-21T03:15:13.664Z,0
2018-07-21T03:16:29.565Z,0
2018-07-21T03:17:45.455Z,0
2018-07-21T03:19:01.300Z,0
2018-07-21T03:20:17.160Z,0
2018-07-21T03:21:33.048Z,0
2018-07-21T03:22:48.904Z,0
2018-07-21T03:24:04.792Z,0
2018-07-21T03:25:20.674Z,0
2018-07-21T03:26:36.563Z,0
2018-07-21T03:27:52.493Z,0
2018-07-21T03:29:08.364Z,0
2018-07-21T03:30:24.229Z,0
2018-07-21T03:31:40.110Z,0
2018-07-21T03:32:55.990Z,0
2018-07-21T03:34:11.854Z,0
2018-07-21T03:35:27.749Z,0
2018-07-21T03:36:43.620Z,0
2018-07-21T03:37:59.513Z,0
2018-07-21T03:39:15.408Z,0
2018-07-21T03:40:31.311Z,0
2018-07-21T03:41:47.167Z,0
2018-07-21T03:43:03.071Z,0
2018-07-21T03:44:18.968Z,0
2018-07-21T03:45:34.845Z,0
2018-07-21T03:46:50.775Z,0
2018-07-21T03:48:06.684Z,0
2018-07-21T03:49:22.605Z,0
2018-07-21T03:50:38.497Z,0
2018-07-21T03:51:54.356Z,0
2018-07-21T03:53:10.261Z,0
2018-07-21T03:54:26.166Z,0
2018-07-21T03:55:42.080Z,0
2018-07-21T03:56:58.006Z,0
2018-07-21T03:58:13.929Z,0
2018-07-21T03:59:29.874Z,0
2018-07-21T04:00:45.764Z,0
2018-07-21T04:02:01.655Z,0
2018-07-21T04:03:17.523Z,0
2018-07-21T04:04:33.429Z,0
2018-07-21T04:05:49.346Z,0
2018-07-21T04:07:05.228Z,0
2018-07-21T04:08:21.112Z,0
2018-07-21T04:09:37.017Z,0
2018-07-21T04:10:52.915Z,0
2018-07-21T04:12:08.804Z,0
2018-07-21T04:13:24.685Z,5.625
2018-07-21T04:14:40.586Z,5.625
2018-07-21T04:15:56.477Z,5.625
2018-07-21T04:17:12.352Z,5.625
2018-07-21T04:18:28.268Z,5.625
2018-07-21T04:19:44.150Z,5.625
2018-07-21T04:21:00.038Z,5.625
2018-07-21T04:22:15.929Z,5.625
2018-07-21T04:23:31.864Z,5.625
2018-07-21T04:24:47.755Z,5.625
2018-07-21T04:26:03.645Z,5.625
2018-07-21T04:27:19.504Z,5.625
2018-07-21T04:28:35.394Z,5.625
2018-07-21T04:29:51.325Z,5.625
2018-07-21T04:31:07.180Z,5.625
2018-07-21T04:32:23.043Z,5.625
2018-07-21T04:33:38.935Z,5.625
2018-07-21T04:34:54.863Z,5.625
2018-07-21T04:36:11.707Z,5.625
2018-07-21T04:37:27.554Z,5.625
2018-07-21T04:38:43.418Z,5.625
2018-07-21T04:39:59.312Z,5.625
2018-07-21T04:41:15.215Z,5.625
2018-07-21T04:42:31.108Z,5.625
2018-07-21T04:43:47.009Z,5.625
2018-07-21T04:45:02.874Z,5.625
2018-07-21T04:46:18.789Z,5.625
2018-07-21T04:47:34.655Z,5.625
2018-07-21T04:48:50.549Z,11.25
2018-07-21T04:50:06.440Z,11.25
2018-07-21T04:51:22.357Z,11.25
2018-07-21T04:52:38.266Z,11.25
2018-07-21T04:53:54.189Z,11.25
2018-07-21T04:55:10.067Z,11.25
2018-07-21T04:56:25.985Z,11.25
2018-07-21T04:57:41.873Z,11.25
2018-07-21T04:58:57.761Z,11.25
2018-07-21T05:00:13.654Z,11.25
2018-07-21T05:01:29.547Z,11.25
2018-07-21T05:02:45.461Z,11.25
2018-07-21T05:04:01.343Z,11.25
2018-07-21T05:05:17.250Z,11.25
2018-07-21T05:06:33.146Z,11.25
2018-07-21T05:07:49.061Z,11.25
2018-07-21T05:09:04.925Z,11.25
2018-07-21T05:10:20.838Z,11.25
2018-07-21T05:11:36.790Z,11.25
2018-07-21T05:12:52.712Z,11.25
2018-07-21T05:14:08.632Z,11.25
2018-07-21T05:15:24.526Z,11.25
2018-07-21T05:16:40.434Z,11.25
2018-07-21T05:17:56.338Z,11.25
2018-07-21T05:19:12.219Z,11.25
2018-07-21T05:20:28.105Z,11.25
2018-07-21T05:21:44.019Z,11.25
2018-07-21T05:22:59.970Z,11.25
2018-07-21T05:24:15.826Z,11.25
2018-07-21T05:25:31.691Z,16.875
2018-07-21T05:26:47.584Z,16.875
2018-07-21T05:28:03.451Z,22.5
2018-07-21T05:29:20.336Z,22.5
2018-07-21T05:30:36.383Z,22.5
2018-07-21T05:31:52.273Z,22.5
2018-07-21T05:33:08.177Z,22.5
2018-07-21T05:34:24.078Z,22.5
2018-07-21T05:35:39.967Z,22.5
2018-07-21T05:36:55.885Z,28.125
2018-07-21T05:38:11.839Z,28.125
2018-07-21T05:39:27.743Z,28.125
2018-07-21T05:40:43.607Z,33.75
2018-07-21T05:41:59.497Z,33.75
2018-07-21T05:43:15.359Z,28.125
2018-07-21T05:44:31.246Z,28.125
2018-07-21T05:45:47.146Z,28.125
2018-07-21T05:47:03.027Z,28.125
2018-07-21T05:48:18.884Z,33.75
2018-07-21T05:49:34.739Z,33.75
2018-07-21T05:50:50.635Z,33.75
2018-07-21T05:52:06.549Z,33.75
2018-07-21T05:53:22.424Z,33.75
2018-07-21T05:54:38.317Z,39.375
2018-07-21T05:55:54.616Z,39.375
2018-07-21T05:57:10.511Z,45
2018-07-21T05:58:26.415Z,45
2018-07-21T05:59:42.402Z,45
2018-07-21T06:00:58.397Z,39.375
2018-07-21T06:02:14.396Z,45
2018-07-21T06:03:30.321Z,45
2018-07-21T06:04:46.262Z,50.625
2018-07-21T06:06:02.163Z,56.25
2018-07-21T06:07:18.061Z,56.25
2018-07-21T06:10:14.658Z,61.875
2018-07-21T06:11:30.627Z,56.25
2018-07-21T06:12:46.560Z,56.25
2018-07-21T06:14:02.449Z,50.625
2018-07-21T06:15:18.423Z,50.625
2018-07-21T06:16:34.296Z,50.625
2018-07-21T06:17:50.180Z,50.625
2018-07-21T06:19:06.205Z,50.625
2018-07-21T06:20:22.353Z,50.625
2018-07-21T06:21:38.424Z,56.25
2018-07-21T06:22:54.747Z,61.875
2018-07-21T06:24:10.932Z,73.125
2018-07-21T06:25:26.825Z,78.75
2018-07-21T06:26:42.742Z,84.375
2018-07-21T06:27:58.769Z,90
2018-07-21T06:29:15.722Z,95.625
2018-07-21T06:30:31.619Z,101.25
2018-07-21T06:31:47.851Z,106.875
2018-07-21T06:33:03.754Z,106.875
2018-07-21T06:34:19.664Z,112.5
2018-07-21T06:35:36.690Z,112.5
2018-07-21T06:36:52.638Z,112.5
2018-07-21T06:38:08.520Z,112.5
2018-07-21T06:39:24.458Z,112.5
2018-07-21T06:40:40.358Z,112.5
2018-07-21T06:41:56.315Z,112.5
2018-07-21T06:43:12.277Z,112.5
2018-07-21T06:44:28.145Z,112.5
2018-07-21T06:45:44.026Z,106.875
2018-07-21T06:46:59.975Z,106.875
2018-07-21T06:48:15.912Z,106.875
2018-07-21T06:49:31.911Z,112.5
2018-07-21T06:50:47.807Z,106.875
2018-07-21T06:52:03.802Z,106.875
2018-07-21T06:53:19.712Z,106.875
2018-07-21T06:54:35.678Z,106.875
2018-07-21T06:55:51.614Z,101.25
2018-07-21T06:57:07.713Z,101.25
2018-07-21T06:58:23.866Z,106.875
2018-07-21T06:59:39.752Z,112.5
2018-07-21T07:00:55.751Z,112.5
2018-07-21T07:02:12.680Z,118.125
2018-07-21T07:03:28.672Z,123.75
2018-07-21T07:06:26.477Z,135
2018-07-21T07:07:42.393Z,140.625
2018-07-21T07:08:58.331Z,146.25
2018-07-21T07:10:14.324Z,146.25
2018-07-21T07:11:30.125Z,140.625
2018-07-21T07:12:46.031Z,135
2018-07-21T07:14:01.967Z,129.375
2018-07-21T07:15:17.884Z,129.375
2018-07-21T07:16:33.787Z,129.375
2018-07-21T07:17:49.706Z,129.375
2018-07-21T07:19:05.633Z,129.375
2018-07-21T07:20:21.597Z,129.375
2018-07-21T07:21:37.521Z,129.375
2018-07-21T07:22:53.369Z,129.375
2018-07-21T07:24:09.292Z,123.75
2018-07-21T07:25:25.190Z,118.125
2018-07-21T07:26:41.095Z,123.75
2018-07-21T07:27:57.012Z,123.75
2018-07-21T07:29:12.949Z,118.125
2018-07-21T07:30:28.872Z,118.125
2018-07-21T07:31:44.803Z,118.125
2018-07-21T07:33:00.740Z,123.75
2018-07-21T07:34:16.726Z,123.75
2018-07-21T07:35:32.653Z,118.125
2018-07-21T07:36:48.692Z,112.5
2018-07-21T07:38:04.593Z,106.875
2018-07-21T07:39:20.502Z,106.875
2018-07-21T07:40:36.428Z,112.5
2018-07-21T07:41:52.351Z,112.5
2018-07-21T07:43:08.262Z,118.125
2018-07-21T07:44:24.166Z,123.75
2018-07-21T07:45:40.052Z,123.75
2018-07-21T07:46:55.985Z,123.75
2018-07-21T07:48:11.967Z,129.375
2018-07-21T07:49:27.890Z,129.375
2018-07-21T07:50:43.794Z,140.625
2018-07-21T07:51:59.819Z,146.25
2018-07-21T07:53:16.917Z,157.5
2018-07-21T07:54:32.857Z,168.75
2018-07-21T07:55:48.809Z,168.75
2018-07-21T07:57:04.825Z,157.5
2018-07-21T07:58:20.748Z,146.25
2018-07-21T07:59:36.656Z,129.375
2018-07-21T08:00:52.572Z,118.125
2018-07-21T08:02:08.581Z,112.5
2018-07-21T08:03:24.548Z,106.875
2018-07-21T08:04:40.484Z,106.875
2018-07-21T08:05:56.427Z,112.5
2018-07-21T08:07:12.441Z,106.875
2018-07-21T08:08:28.474Z,112.5
2018-07-21T08:09:44.317Z,112.5
2018-07-21T08:11:00.259Z,106.875
2018-07-21T08:12:16.319Z,106.875
2018-07-21T08:13:32.240Z,112.5
2018-07-21T08:14:48.206Z,106.875
2018-07-21T08:16:04.157Z,101.25
2018-07-21T08:17:20.127Z,101.25
2018-07-21T08:18:36.079Z,90
2018-07-21T08:21:32.574Z,84.375
2018-07-21T08:24:29.235Z,112.5
2018-07-21T08:27:26.069Z,168.75
2018-07-21T08:28:41.995Z,236.25
2018-07-21T08:30:15.884Z,225
2018-07-21T08:31:31.875Z,208.125
2018-07-21T08:34:28.541Z,196.875
2018-07-21T08:39:06.270Z,219.375
2018-07-21T08:43:43.614Z,219.375
2018-07-21T08:46:40.062Z,219.375
2018-07-21T08:47:56.129Z,213.75
2018-07-21T08:49:12.075Z,208.125
2018-07-21T08:50:29.032Z,208.125
2018-07-21T08:51:44.984Z,213.75
2018-07-21T08:53:00.968Z,219.375
2018-07-21T08:54:16.940Z,219.375
2018-07-21T08:55:32.841Z,225
2018-07-21T08:56:48.806Z,236.25
2018-07-21T08:58:05.535Z,230.625
2018-07-21T08:59:21.467Z,225
2018-07-21T09:00:37.427Z,225
2018-07-21T09:01:53.388Z,241.875
2018-07-21T09:03:10.377Z,258.75
2018-07-21T09:04:26.374Z,264.375
2018-07-21T09:05:42.461Z,258.75
2018-07-21T09:06:58.356Z,258.75
2018-07-21T09:08:14.384Z,247.5
2018-07-21T09:09:30.354Z,241.875
2018-07-21T09:10:46.310Z,230.625
2018-07-21T09:12:02.257Z,230.625
2018-07-21T09:13:18.267Z,253.125
2018-07-21T09:14:34.237Z,292.5
2018-07-21T09:15:50.255Z,309.375
2018-07-21T09:17:06.210Z,298.125
2018-07-21T09:18:22.209Z,298.125
2018-07-21T09:19:38.232Z,264.375
2018-07-21T09:20:54.166Z,360
2018-07-21T09:22:10.142Z,371.25
2018-07-21T09:23:26.157Z,376.875
2018-07-21T09:24:42.090Z,382.5
2018-07-21T09:25:58.126Z,382.5
2018-07-21T09:27:14.118Z,393.75
2018-07-21T09:28:30.151Z,399.375
2018-07-21T09:29:46.111Z,416.25
2018-07-21T09:31:02.096Z,427.5
2018-07-21T09:32:18.062Z,433.125
2018-07-21T09:33:33.974Z,438.75
2018-07-21T09:34:49.914Z,444.375
2018-07-21T09:36:05.845Z,444.375
2018-07-21T09:37:21.797Z,348.75
2018-07-21T09:38:37.738Z,421.875
2018-07-21T09:39:53.685Z,399.375
2018-07-21T09:41:09.637Z,405
2018-07-21T09:42:25.585Z,478.125
2018-07-21T09:43:41.530Z,483.75
2018-07-21T09:44:57.459Z,433.125
2018-07-21T09:46:13.440Z,405
2018-07-21T09:47:29.335Z,416.25
2018-07-21T09:48:45.267Z,360
2018-07-21T09:50:01.176Z,365.625
2018-07-21T09:51:17.144Z,495
2018-07-21T09:52:33.083Z,500.625
2018-07-21T09:53:49.005Z,500.625
2018-07-21T09:55:05.021Z,495
2018-07-21T09:56:20.949Z,483.75
2018-07-21T09:57:36.938Z,483.75
2018-07-21T09:58:52.890Z,489.375
2018-07-21T10:00:08.856Z,495
2018-07-21T10:01:24.772Z,489.375
2018-07-21T10:02:40.720Z,495
2018-07-21T10:03:56.712Z,500.625
2018-07-21T10:05:12.619Z,511.875
2018-07-21T10:06:28.523Z,523.125
2018-07-21T10:07:44.473Z,528.75
2018-07-21T10:09:00.431Z,534.375
2018-07-21T10:10:16.400Z,540
2018-07-21T10:11:32.319Z,551.25
2018-07-21T10:12:48.273Z,556.875
2018-07-21T10:14:04.192Z,562.5
2018-07-21T10:15:20.196Z,568.125
2018-07-21T10:16:36.036Z,556.875
2018-07-21T10:17:51.990Z,545.625
2018-07-21T10:19:07.891Z,545.625
2018-07-21T10:20:23.862Z,540
2018-07-21T10:21:39.958Z,545.625
2018-07-21T10:22:56.226Z,551.25
2018-07-21T10:24:12.326Z,562.5
2018-07-21T10:25:28.293Z,562.5
2018-07-21T10:26:44.242Z,568.125
2018-07-21T10:28:00.227Z,573.75
2018-07-21T10:29:16.172Z,568.125
2018-07-21T10:30:32.147Z,551.25
2018-07-21T10:31:48.110Z,551.25
2018-07-21T10:33:04.118Z,556.875
2018-07-21T10:34:20.025Z,562.5
2018-07-21T10:35:35.977Z,573.75
2018-07-21T10:36:51.920Z,568.125
2018-07-21T10:38:07.881Z,562.5
2018-07-21T10:39:23.786Z,562.5
2018-07-21T10:40:39.711Z,545.625
2018-07-21T10:41:55.638Z,540
2018-07-21T10:43:11.643Z,540
2018-07-21T10:44:27.573Z,540
2018-07-21T10:45:43.590Z,540
2018-07-21T10:46:59.743Z,540
2018-07-21T10:49:57.547Z,511.875
2018-07-21T10:51:13.660Z,489.375
2018-07-21T10:52:29.639Z,466.875
2018-07-21T10:53:45.575Z,438.75
2018-07-21T10:55:01.488Z,416.25
2018-07-21T10:56:17.459Z,405
2018-07-21T10:57:33.390Z,393.75
2018-07-21T10:58:49.337Z,388.125
2018-07-21T11:00:05.233Z,382.5
2018-07-21T11:01:21.251Z,388.125
2018-07-21T11:02:37.173Z,382.5
2018-07-21T11:03:53.088Z,382.5
2018-07-21T11:05:09.090Z,382.5
2018-07-21T11:06:25.476Z,382.5
2018-07-21T11:07:41.483Z,388.125
2018-07-21T11:08:57.460Z,405
2018-07-21T11:10:13.462Z,433.125
2018-07-21T11:11:29.456Z,495
2018-07-21T11:12:45.434Z,517.5
2018-07-21T11:14:01.402Z,511.875
2018-07-21T11:15:17.385Z,483.75
2018-07-21T11:16:33.225Z,495
2018-07-21T11:17:49.184Z,478.125
2018-07-21T11:19:05.125Z,478.125
2018-07-21T11:20:21.110Z,450
2018-07-21T11:21:37.046Z,405
2018-07-21T11:22:52.991Z,388.125
2018-07-21T11:24:08.930Z,393.75
2018-07-21T11:25:24.853Z,348.75
2018-07-21T11:26:40.892Z,326.25
2018-07-21T11:27:56.859Z,303.75
2018-07-21T11:29:12.842Z,286.875
2018-07-21T11:30:28.805Z,270
2018-07-21T11:31:44.868Z,253.125
2018-07-21T11:33:00.838Z,241.875
2018-07-21T11:34:16.815Z,236.25
2018-07-21T11:35:32.948Z,236.25
2018-07-21T11:36:48.984Z,236.25
2018-07-21T11:38:05.323Z,236.25
2018-07-21T11:39:21.625Z,236.25
2018-07-21T11:40:37.543Z,236.25
2018-07-21T11:41:53.441Z,236.25
2018-07-21T11:43:09.413Z,236.25
2018-07-21T11:44:25.442Z,241.875
2018-07-21T11:45:41.340Z,247.5
2018-07-21T11:46:57.269Z,253.125
2018-07-21T11:48:13.189Z,258.75
2018-07-21T11:51:09.722Z,292.5
2018-07-21T11:52:25.681Z,303.75
2018-07-21T11:53:41.713Z,320.625
2018-07-21T11:54:57.622Z,337.5
2018-07-21T11:56:13.580Z,365.625
2018-07-21T11:57:29.504Z,388.125
2018-07-21T11:58:45.476Z,410.625
2018-07-21T12:00:01.417Z,433.125
2018-07-21T12:01:17.374Z,450
2018-07-21T12:02:33.280Z,461.25
2018-07-21T12:03:49.213Z,483.75
2018-07-21T12:05:05.172Z,466.875
2018-07-21T12:06:21.165Z,455.625
2018-07-21T12:07:37.076Z,444.375
2018-07-21T12:08:53.027Z,405
2018-07-21T12:10:08.953Z,376.875
2018-07-21T12:11:24.915Z,354.375
2018-07-21T12:12:40.838Z,331.875
2018-07-21T12:13:56.808Z,315
2018-07-21T12:15:12.726Z,292.5
2018-07-21T12:16:28.666Z,275.625
2018-07-21T12:17:44.611Z,270
2018-07-21T12:19:00.565Z,270
2018-07-21T12:20:16.515Z,270
2018-07-21T12:21:32.438Z,275.625
2018-07-21T12:22:48.360Z,286.875
2018-07-21T12:24:04.280Z,303.75
2018-07-21T12:25:20.232Z,331.875
2018-07-21T12:26:36.245Z,365.625
2018-07-21T12:27:52.102Z,393.75
2018-07-21T12:29:08.017Z,427.5
2018-07-21T12:30:23.935Z,450
2018-07-21T12:31:39.893Z,489.375
2018-07-21T12:32:55.871Z,528.75
2018-07-21T12:34:11.875Z,568.125
2018-07-21T12:35:27.786Z,579.375
2018-07-21T12:36:43.735Z,585
2018-07-21T12:37:59.662Z,579.375
2018-07-21T12:39:15.640Z,568.125
2018-07-21T12:40:31.588Z,551.25
2018-07-21T12:41:47.520Z,528.75
2018-07-21T12:43:03.554Z,511.875
2018-07-21T12:44:19.521Z,506.25
2018-07-21T12:45:35.433Z,506.25
2018-07-21T12:46:51.345Z,495
2018-07-21T12:48:07.258Z,495
2018-07-21T12:49:23.164Z,495
2018-07-21T12:52:19.657Z,489.375
2018-07-21T12:53:35.558Z,489.375
2018-07-21T12:54:51.532Z,495
2018-07-21T12:56:07.433Z,489.375
2018-07-21T12:57:23.389Z,478.125
2018-07-21T12:58:39.277Z,472.5
2018-07-21T12:59:55.286Z,483.75
2018-07-21T13:01:11.174Z,483.75
2018-07-21T13:02:27.124Z,483.75
2018-07-21T13:03:43.111Z,478.125
2018-07-21T13:04:59.136Z,478.125
2018-07-21T13:06:15.095Z,489.375
2018-07-21T13:07:31.044Z,483.75
2018-07-21T13:08:47.067Z,489.375
2018-07-21T13:10:03.093Z,489.375
2018-07-21T13:11:19.076Z,478.125
2018-07-21T13:12:35.026Z,466.875
2018-07-21T13:13:50.936Z,444.375
2018-07-21T13:15:06.919Z,444.375
2018-07-21T13:16:22.851Z,450
2018-07-21T13:17:38.808Z,472.5
2018-07-21T13:18:54.798Z,472.5
2018-07-21T13:20:10.773Z,483.75
2018-07-21T13:21:26.697Z,506.25
2018-07-21T13:22:42.674Z,506.25
2018-07-21T13:23:58.631Z,511.875
2018-07-21T13:25:15.175Z,517.5
2018-07-21T13:26:32.389Z,517.5
2018-07-21T13:27:48.798Z,517.5
2018-07-21T13:29:04.730Z,511.875
2018-07-21T13:30:20.656Z,500.625
2018-07-21T13:31:37.034Z,500.625
2018-07-21T13:32:52.935Z,495
2018-07-21T13:34:08.879Z,500.625
2018-07-21T13:35:24.814Z,495
2018-07-21T13:36:40.763Z,483.75
2018-07-21T13:37:56.726Z,472.5
2018-07-21T13:39:12.663Z,472.5
2018-07-21T13:40:28.615Z,466.875
2018-07-21T13:41:44.571Z,466.875
2018-07-21T13:43:00.549Z,472.5
2018-07-21T13:44:16.540Z,478.125
2018-07-21T13:45:32.564Z,472.5
2018-07-21T13:46:48.490Z,472.5
2018-07-21T13:48:04.437Z,478.125
2018-07-21T13:49:20.399Z,489.375
2018-07-21T13:50:36.295Z,489.375
2018-07-21T13:51:52.271Z,495
2018-07-21T13:53:08.211Z,489.375
2018-07-21T13:54:24.134Z,478.125
2018-07-21T13:55:40.096Z,472.5
2018-07-21T13:56:56.039Z,466.875
2018-07-21T13:58:12.017Z,466.875
2018-07-21T13:59:27.969Z,466.875
2018-07-21T14:00:43.948Z,461.25
2018-07-21T14:01:59.821Z,455.625
2018-07-21T14:03:15.813Z,450
2018-07-21T14:04:31.712Z,444.375
2018-07-21T14:05:47.650Z,444.375
2018-07-21T14:07:03.584Z,433.125
2018-07-21T14:08:19.605Z,427.5
2018-07-21T14:09:35.544Z,410.625
2018-07-21T14:10:51.459Z,399.375
2018-07-21T14:12:07.403Z,382.5
2018-07-21T14:13:23.383Z,360
2018-07-21T14:14:39.371Z,354.375
2018-07-21T14:15:55.360Z,348.75
2018-07-21T14:17:11.258Z,348.75
2018-07-21T14:18:27.221Z,343.125
2018-07-21T14:19:43.233Z,337.5
2018-07-21T14:20:59.263Z,337.5
2018-07-21T14:22:15.220Z,337.5
2018-07-21T14:23:31.212Z,337.5
2018-07-21T14:24:47.212Z,337.5
2018-07-21T14:26:03.188Z,326.25
2018-07-21T14:27:19.138Z,315
2018-07-21T14:28:35.136Z,298.125
2018-07-21T14:29:51.251Z,292.5
2018-07-21T14:31:07.044Z,292.5
2018-07-21T14:32:22.977Z,292.5
2018-07-21T14:33:38.958Z,292.5
2018-07-21T14:34:55.014Z,286.875
2018-07-21T14:36:11.111Z,275.625
2018-07-21T14:37:26.888Z,270
2018-07-21T14:38:42.883Z,270
2018-07-21T14:39:58.788Z,275.625
2018-07-21T14:41:14.761Z,292.5
2018-07-21T14:42:30.665Z,320.625
2018-07-21T14:43:46.598Z,343.125
2018-07-21T14:45:02.496Z,354.375
2018-07-21T14:46:18.529Z,348.75
2018-07-21T14:47:34.485Z,343.125
2018-07-21T14:48:50.509Z,337.5
2018-07-21T14:50:06.331Z,343.125
2018-07-21T14:51:22.241Z,343.125
2018-07-21T14:52:39.136Z,348.75
2018-07-21T14:53:55.108Z,360
2018-07-21T14:55:11.121Z,376.875
2018-07-21T14:56:27.043Z,388.125
2018-07-21T14:57:43.025Z,382.5
2018-07-21T14:58:58.987Z,365.625
2018-07-21T15:00:15.087Z,348.75
2018-07-21T15:01:31.071Z,326.25
2018-07-21T15:02:46.980Z,303.75
2018-07-21T15:04:02.940Z,292.5
2018-07-21T15:05:18.930Z,281.25
2018-07-21T15:06:35.284Z,258.75
2018-07-21T15:07:51.583Z,241.875
2018-07-21T15:09:07.550Z,230.625
2018-07-21T15:10:23.527Z,219.375
2018-07-21T15:11:39.517Z,208.125
2018-07-21T15:12:55.439Z,196.875
2018-07-21T15:14:11.415Z,196.875
2018-07-21T15:15:27.414Z,191.25
2018-07-21T15:16:43.395Z,191.25
2018-07-21T15:17:59.296Z,196.875
2018-07-21T15:19:15.226Z,196.875
2018-07-21T15:20:31.187Z,196.875
2018-07-21T15:21:47.160Z,202.5
2018-07-21T15:23:03.495Z,202.5
2018-07-21T15:24:19.466Z,202.5
2018-07-21T15:25:35.469Z,202.5
2018-07-21T15:26:51.465Z,202.5
2018-07-21T15:28:07.475Z,196.875
2018-07-21T15:29:23.454Z,196.875
2018-07-21T15:30:39.359Z,191.25
2018-07-21T15:31:55.277Z,191.25
2018-07-21T15:33:11.168Z,185.625
2018-07-21T15:34:27.143Z,180
2018-07-21T15:35:43.271Z,168.75
2018-07-21T15:36:59.225Z,163.125
2018-07-21T15:38:15.546Z,163.125
2018-07-21T15:39:31.461Z,157.5
2018-07-21T15:40:47.500Z,151.875
2018-07-21T15:42:03.430Z,146.25
2018-07-21T15:43:19.446Z,146.25
2018-07-21T15:44:35.457Z,140.625
2018-07-21T15:45:51.419Z,146.25
2018-07-21T15:47:07.344Z,151.875
2018-07-21T15:48:23.254Z,157.5
2018-07-21T15:49:39.202Z,157.5
2018-07-21T15:50:55.134Z,157.5
2018-07-21T15:52:11.084Z,157.5
2018-07-21T15:53:27.057Z,157.5
2018-07-21T15:54:43.089Z,157.5
2018-07-21T15:55:58.996Z,157.5
2018-07-21T15:57:15.029Z,157.5
2018-07-21T15:58:31.000Z,157.5
2018-07-21T15:59:46.975Z,151.875
2018-07-21T16:01:02.917Z,151.875
2018-07-21T16:02:18.961Z,151.875
2018-07-21T16:03:34.938Z,151.875
2018-07-21T16:04:50.879Z,151.875
2018-07-21T16:06:06.845Z,151.875
2018-07-21T16:07:22.742Z,151.875
2018-07-21T16:10:19.217Z,151.875
2018-07-21T16:11:35.197Z,151.875
2018-07-21T16:12:51.218Z,151.875
2018-07-21T16:14:07.157Z,151.875
2018-07-21T16:15:23.172Z,146.25
2018-07-21T16:16:39.104Z,146.25
2018-07-21T16:17:55.047Z,146.25
2018-07-21T16:19:10.984Z,140.625
2018-07-21T16:20:26.921Z,135
2018-07-21T16:21:42.849Z,135
2018-07-21T16:22:58.783Z,129.375
2018-07-21T16:24:14.714Z,123.75
2018-07-21T16:25:30.705Z,123.75
2018-07-21T16:26:46.726Z,118.125
2018-07-21T16:28:02.762Z,118.125
2018-07-21T16:29:18.698Z,123.75
2018-07-21T16:30:34.709Z,123.75
2018-07-21T16:31:50.730Z,123.75
2018-07-21T16:33:06.741Z,123.75
2018-07-21T16:34:22.723Z,123.75
2018-07-21T16:35:38.721Z,123.75
2018-07-21T16:36:54.725Z,123.75
2018-07-21T16:38:10.708Z,123.75
2018-07-21T16:39:26.641Z,123.75
2018-07-21T16:40:42.638Z,123.75
2018-07-21T16:41:58.621Z,123.75
2018-07-21T16:43:14.642Z,123.75
2018-07-21T16:44:30.772Z,123.75
2018-07-21T16:45:46.766Z,118.125
2018-07-21T16:47:02.750Z,118.125
2018-07-21T16:48:19.538Z,118.125
2018-07-21T16:49:35.563Z,118.125
2018-07-21T16:50:51.558Z,118.125
2018-07-21T16:52:06.539Z,118.125
2018-07-21T16:53:22.475Z,112.5
2018-07-21T16:54:38.474Z,112.5
2018-07-21T16:55:54.466Z,106.875
2018-07-21T16:57:10.464Z,106.875
2018-07-21T16:58:26.478Z,101.25